Time;durP1;ratioP1;P1;durP2;ratioP2;P2;SDS_P1;SDS_P2;PMS_P1;PMS_P2;Temp;Humidity;BMP_temperature;BMP_pressure;BME280_temperature;BME280_humidity;BME280_pressure;Samples;Min_cycle;Max_cycle;Signal;HPM_P1;HPM_P2
2021/04/22 00:01:55;;;;;;;8.87;2.47;;;6.70;68.20;;;;;;5111004;28;20394;-69
2021/04/22 00:04:21;;;;;;;15.03;2.57;;;6.70;67.80;;;;;;5111202;28;20476;-69
2021/04/22 00:06:50;;;;;;;15.90;3.10;;;6.60;67.30;;;;;;5112555;28;20047;-69
2021/04/22 00:09:16;;;;;;;11.67;3.73;;;6.60;67.20;;;;;;5115554;28;20035;-68
2021/04/22 00:11:42;;;;;;;13.60;3.07;;;6.60;66.90;;;;;;5114417;28;20301;-69
2021/04/22 00:14:08;;;;;;;14.23;3.47;;;6.60;66.30;;;;;;5115073;28;20059;-69
2021/04/22 00:16:33;;;;;;;13.37;3.20;;;6.60;66.00;;;;;;5115687;28;20126;-69
2021/04/22 00:19:00;;;;;;;11.60;2.70;;;6.60;65.80;;;;;;5114226;28;20097;-69
2021/04/22 00:21:25;;;;;;;19.63;3.60;;;6.60;65.80;;;;;;5115184;28;20468;-68
2021/04/22 00:23:51;;;;;;;16.37;3.47;;;6.50;65.70;;;;;;5115120;28;20305;-68
2021/04/22 00:26:17;;;;;;;14.20;3.10;;;6.50;65.70;;;;;;5114298;28;20061;-68
2021/04/22 00:28:43;;;;;;;12.80;2.20;;;6.60;65.70;;;;;;5114865;28;20051;-69
2021/04/22 00:31:09;;;;;;;10.17;2.67;;;6.50;65.70;;;;;;5115026;28;20055;-69
2021/04/22 00:33:34;;;;;;;9.37;2.70;;;6.40;65.70;;;;;;5114559;28;20045;-68
2021/04/22 00:36:00;;;;;;;13.73;2.67;;;6.40;65.30;;;;;;5114423;28;20127;-68
2021/04/22 00:38:26;;;;;;;19.43;3.03;;;6.40;65.30;;;;;;5115215;28;20047;-69
2021/04/22 00:40:51;;;;;;;12.27;3.03;;;6.30;65.40;;;;;;5114015;28;20062;-69
2021/04/22 00:43:18;;;;;;;14.07;2.87;;;6.30;65.50;;;;;;5114545;28;20047;-69
2021/04/22 00:45:45;;;;;;;13.80;2.67;;;6.20;65.50;;;;;;5114642;28;20039;-68
2021/04/22 00:48:13;;;;;;;12.53;2.97;;;6.20;65.50;;;;;;5114153;28;20289;-68
2021/04/22 00:50:40;;;;;;;9.17;2.13;;;6.20;65.60;;;;;;5114944;28;20305;-68
2021/04/22 00:53:06;;;;;;;10.17;2.40;;;6.20;65.60;;;;;;5114604;28;20297;-68
2021/04/22 00:55:33;;;;;;;14.23;2.73;;;6.20;65.20;;;;;;5114026;28;20306;-69
2021/04/22 00:58:00;;;;;;;17.50;3.23;;;6.30;65.00;;;;;;5114022;28;20301;-69
2021/04/22 01:00:37;;;;;;;12.57;2.93;;;6.30;64.90;;;;;;5114642;28;20297;-69
2021/04/22 01:03:05;;;;;;;13.93;2.60;;;6.30;64.80;;;;;;5114400;28;20305;-69
2021/04/22 01:05:34;;;;;;;16.77;2.80;;;6.30;64.70;;;;;;5114648;28;20301;-68
2021/04/22 01:08:00;;;;;;;11.20;2.40;;;6.40;64.70;;;;;;5113350;27;20323;-69
2021/04/22 01:10:26;;;;;;;8.97;2.30;;;6.40;64.60;;;;;;5114219;28;20297;-68
2021/04/22 01:12:52;;;;;;;11.33;2.10;;;6.40;64.30;;;;;;5114361;28;20346;-69
2021/04/22 01:15:22;;;;;;;10.27;3.03;;;6.50;64.50;;;;;;5113573;28;20348;-68
2021/04/22 01:17:48;;;;;;;13.10;3.20;;;6.50;64.30;;;;;;5113755;28;20354;-68
2021/04/22 01:20:18;;;;;;;10.60;3.00;;;6.50;64.20;;;;;;5113792;28;20309;-68
2021/04/22 01:22:46;;;;;;;9.87;2.10;;;6.50;64.30;;;;;;5113215;28;20055;-69
2021/04/22 01:25:15;;;;;;;9.90;2.60;;;6.60;64.40;;;;;;5113968;27;20294;-69
2021/04/22 01:27:40;;;;;;;17.77;2.90;;;6.60;64.50;;;;;;5114430;28;20330;-68
2021/04/22 01:30:09;;;;;;;16.50;2.87;;;6.60;64.60;;;;;;5113294;28;20305;-68
2021/04/22 01:32:36;;;;;;;11.20;2.87;;;6.60;64.70;;;;;;5114133;28;20305;-69
2021/04/22 01:35:05;;;;;;;14.60;3.20;;;6.60;64.70;;;;;;5113279;28;20632;-69
2021/04/22 01:37:30;;;;;;;16.03;2.73;;;6.60;64.80;;;;;;5113139;28;20317;-69
2021/04/22 01:40:02;;;;;;;12.13;2.53;;;6.60;65.10;;;;;;5113823;27;20301;-69
2021/04/22 01:42:28;;;;;;;12.80;2.47;;;6.60;65.20;;;;;;5113981;28;20324;-68
2021/04/22 01:44:54;;;;;;;14.67;3.03;;;6.60;65.40;;;;;;5112899;28;20289;-69
2021/04/22 01:47:19;;;;;;;17.70;2.97;;;6.60;65.60;;;;;;5113710;28;20047;-68
2021/04/22 01:49:45;;;;;;;11.63;2.63;;;6.70;65.80;;;;;;5113497;28;20389;-69
2021/04/22 01:52:11;;;;;;;11.23;3.00;;;6.60;66.00;;;;;;5112712;28;20047;-68
2021/04/22 01:54:37;;;;;;;14.60;3.80;;;6.70;66.20;;;;;;5113876;28;20126;-69
2021/04/22 01:57:02;;;;;;;15.00;2.73;;;6.60;66.00;;;;;;5112479;28;20396;-69
2021/04/22 01:59:30;;;;;;;15.10;2.50;;;6.70;66.10;;;;;;5113859;27;20075;-68
2021/04/22 02:01:56;;;;;;;14.37;2.77;;;6.60;65.90;;;;;;5112670;28;20820;-68
2021/04/22 02:04:21;;;;;;;10.97;3.10;;;6.60;66.00;;;;;;5112758;28;20519;-69
2021/04/22 02:06:47;;;;;;;13.53;2.87;;;6.60;66.90;;;;;;5113372;28;20485;-69
2021/04/22 02:09:12;;;;;;;12.73;3.80;;;6.60;66.10;;;;;;5113098;28;20481;-68
2021/04/22 02:11:38;;;;;;;17.67;2.60;;;6.60;66.20;;;;;;5112782;28;20488;-69
2021/04/22 02:14:04;;;;;;;13.93;3.20;;;6.60;66.30;;;;;;5112781;28;20067;-69
2021/04/22 02:16:30;;;;;;;13.00;3.87;;;6.50;66.10;;;;;;5113339;27;20532;-68
2021/04/22 02:18:55;;;;;;;19.17;2.80;;;6.50;66.00;;;;;;5112055;28;20044;-69
2021/04/22 02:21:21;;;;;;;15.20;3.07;;;6.50;66.00;;;;;;5112904;28;20135;-68
2021/04/22 02:23:47;;;;;;;10.20;2.20;;;6.60;66.00;;;;;;5113005;28;20075;-68
2021/04/22 02:26:12;;;;;;;10.70;2.80;;;6.60;66.00;;;;;;5112264;28;20059;-68
2021/04/22 02:28:38;;;;;;;12.43;2.30;;;6.60;66.00;;;;;;5112842;28;20051;-68
2021/04/22 02:31:04;;;;;;;10.63;2.60;;;6.60;66.00;;;;;;5111942;28;20082;-68
2021/04/22 02:33:29;;;;;;;13.07;2.67;;;6.60;65.80;;;;;;5112179;28;20043;-69
2021/04/22 02:35:55;;;;;;;13.37;3.13;;;6.70;65.90;;;;;;5112064;28;20460;-68
2021/04/22 02:38:21;;;;;;;8.97;2.27;;;6.70;65.80;;;;;;5113160;28;20081;-68
2021/04/22 02:40:48;;;;;;;8.90;2.63;;;6.70;65.90;;;;;;5111665;28;20039;-68
2021/04/22 02:43:15;;;;;;;11.60;2.80;;;6.70;65.90;;;;;;5112530;28;20054;-68
2021/04/22 02:45:55;;;;;;;12.13;2.67;;;6.70;65.90;;;;;;5112280;28;20308;-68
2021/04/22 02:48:22;;;;;;;13.73;3.17;;;6.70;65.70;;;;;;5111806;28;20297;-68
2021/04/22 02:50:53;;;;;;;15.70;3.37;;;6.70;65.70;;;;;;5112568;28;20293;-69
2021/04/22 02:53:20;;;;;;;13.35;2.75;;;6.80;65.70;;;;;;5111594;28;20750;-69
2021/04/22 02:55:46;;;;;;;10.40;2.90;;;6.80;65.50;;;;;;5112251;28;20055;-69
2021/04/22 02:58:13;;;;;;;15.33;2.93;;;6.80;65.40;;;;;;5112149;28;20295;-68
2021/04/22 03:00:40;;;;;;;11.63;3.40;;;6.80;65.30;;;;;;5111481;28;20308;-69
2021/04/22 03:03:06;;;;;;;11.27;2.77;;;6.80;65.20;;;;;;5112321;28;20301;-69
2021/04/22 03:05:33;;;;;;;14.90;3.00;;;6.80;65.00;;;;;;5112516;28;20306;-68
2021/04/22 03:07:58;;;;;;;11.50;3.30;;;6.80;64.80;;;;;;5111158;28;20376;-68
2021/04/22 03:10:25;;;;;;;13.43;2.83;;;6.80;64.90;;;;;;5112160;28;20439;-68
2021/04/22 03:12:51;;;;;;;13.20;3.17;;;6.80;64.60;;;;;;5111846;28;20492;-70
2021/04/22 03:15:18;;;;;;;18.27;3.37;;;6.80;64.70;;;;;;5111069;28;20350;-70
2021/04/22 03:17:45;;;;;;;8.37;3.07;;;6.80;64.70;;;;;;5111902;28;20874;-70
2021/04/22 03:20:12;;;;;;;8.57;2.70;;;6.80;64.70;;;;;;5111845;28;20397;-69
2021/04/22 03:22:38;;;;;;;13.63;3.07;;;6.80;64.30;;;;;;5111306;28;20651;-69
2021/04/22 03:25:05;;;;;;;15.37;3.13;;;6.80;64.30;;;;;;5111505;28;20293;-70
2021/04/22 03:27:31;;;;;;;10.97;2.30;;;6.80;64.10;;;;;;5111967;28;20309;-70
2021/04/22 03:29:57;;;;;;;13.57;3.00;;;6.80;64.10;;;;;;5110516;28;20663;-69
2021/04/22 03:32:24;;;;;;;15.70;3.10;;;6.80;63.60;;;;;;5111541;28;20064;-69
2021/04/22 03:34:49;;;;;;;13.97;2.83;;;6.80;63.60;;;;;;5111832;28;20297;-70
2021/04/22 03:37:15;;;;;;;11.33;2.73;;;6.70;63.70;;;;;;5111011;28;20302;-69
2021/04/22 03:39:41;;;;;;;11.77;2.97;;;6.70;63.60;;;;;;5111809;28;20145;-69
2021/04/22 03:42:07;;;;;;;13.77;2.80;;;6.80;63.50;;;;;;5111559;28;20081;-69
2021/04/22 03:44:32;;;;;;;11.87;3.23;;;6.80;63.60;;;;;;5110977;28;20054;-69
2021/04/22 03:46:58;;;;;;;10.87;3.70;;;6.80;63.60;;;;;;5111225;28;20293;-69
2021/04/22 03:49:24;;;;;;;14.47;3.10;;;6.80;63.40;;;;;;5111665;28;20128;-69
2021/04/22 03:51:49;;;;;;;12.33;3.20;;;6.80;63.40;;;;;;5111017;28;20135;-69
2021/04/22 03:54:15;;;;;;;13.80;3.70;;;6.80;63.60;;;;;;5111419;28;20063;-70
2021/04/22 03:56:41;;;;;;;11.23;2.70;;;6.80;63.60;;;;;;5110660;28;20047;-70
2021/04/22 03:59:06;;;;;;;13.63;2.87;;;6.80;63.60;;;;;;5111191;28;20511;-70
2021/04/22 04:01:32;;;;;;;13.57;2.97;;;6.80;63.30;;;;;;5111856;28;20055;-69
2021/04/22 04:04:03;;;;;;;15.20;3.47;;;6.80;63.50;;;;;;5110537;28;20400;-69
2021/04/22 04:06:28;;;;;;;13.27;3.43;;;6.80;63.50;;;;;;5111564;28;20651;-69
2021/04/22 04:08:54;;;;;;;11.43;3.10;;;6.80;63.40;;;;;;5111447;28;20298;-69
2021/04/22 04:11:20;;;;;;;11.40;3.03;;;6.80;63.60;;;;;;5111030;28;20378;-70
2021/04/22 04:13:46;;;;;;;11.57;3.07;;;6.80;63.30;;;;;;5111205;28;20322;-70
2021/04/22 04:16:11;;;;;;;16.97;3.70;;;6.80;63.30;;;;;;5111186;28;20113;-69
2021/04/22 04:18:37;;;;;;;10.17;2.90;;;6.80;63.10;;;;;;5110325;28;20063;-69
2021/04/22 04:21:03;;;;;;;11.90;3.53;;;6.80;64.10;;;;;;5110250;28;20044;-69
2021/04/22 04:23:28;;;;;;;12.60;3.07;;;6.70;63.00;;;;;;5111103;28;20071;-69
2021/04/22 04:25:54;;;;;;;14.57;3.27;;;6.70;62.90;;;;;;5110205;28;20066;-69
2021/04/22 04:28:20;;;;;;;7.27;2.27;;;6.80;63.00;;;;;;5111064;28;20071;-70
2021/04/22 04:30:46;;;;;;;9.47;2.73;;;6.80;63.00;;;;;;5110721;28;20052;-70
2021/04/22 04:33:12;;;;;;;11.13;3.60;;;6.80;62.90;;;;;;5109881;28;20043;-70
2021/04/22 04:35:37;;;;;;;14.97;2.93;;;6.70;62.80;;;;;;5111207;28;20654;-69
2021/04/22 04:38:04;;;;;;;9.80;2.87;;;6.70;63.20;;;;;;5110474;28;20499;-69
2021/04/22 04:40:34;;;;;;;18.13;3.85;;;6.70;64.00;;;;;;5110400;28;20093;-69
2021/04/22 04:43:01;;;;;;;14.10;3.17;;;6.60;64.80;;;;;;5110141;28;20591;-69
2021/04/22 04:45:29;;;;;;;19.20;3.43;;;6.60;65.40;;;;;;5110916;28;20081;-69
2021/04/22 04:47:55;;;;;;;10.20;2.80;;;6.60;65.90;;;;;;5109529;28;20309;-70
2021/04/22 04:50:21;;;;;;;14.73;3.57;;;6.60;65.90;;;;;;5110759;28;20309;-69
2021/04/22 04:52:47;;;;;;;13.17;3.23;;;6.60;65.90;;;;;;5111241;28;20070;-69
2021/04/22 04:55:13;;;;;;;12.43;2.83;;;6.60;65.70;;;;;;5114150;28;20309;-69
2021/04/22 04:57:40;;;;;;;13.47;3.03;;;6.60;65.60;;;;;;5114308;28;20642;-69
2021/04/22 05:00:08;;;;;;;16.33;3.00;;;6.60;65.50;;;;;;5113564;28;20301;-68
2021/04/22 05:02:34;;;;;;;12.30;4.00;;;6.60;65.20;;;;;;5113757;28;20712;-69
2021/04/22 05:05:01;;;;;;;15.50;3.23;;;6.50;65.20;;;;;;5113524;28;20687;-69
2021/04/22 05:07:27;;;;;;;14.83;3.40;;;6.60;64.80;;;;;;5113837;28;20060;-69
2021/04/22 05:09:56;;;;;;;11.33;2.83;;;6.60;64.10;;;;;;5113338;27;20293;-70
2021/04/22 05:12:22;;;;;;;13.37;3.17;;;6.60;63.90;;;;;;5114280;28;20297;-69
2021/04/22 05:14:49;;;;;;;10.83;2.90;;;6.60;63.70;;;;;;5112946;28;20104;-69
2021/04/22 05:17:15;;;;;;;17.40;2.93;;;6.70;63.70;;;;;;5113783;27;20384;-69
2021/04/22 05:19:41;;;;;;;10.97;3.33;;;6.70;63.40;;;;;;5113848;28;20296;-70
2021/04/22 05:22:07;;;;;;;13.27;2.47;;;6.70;63.40;;;;;;5112915;28;20321;-69
2021/04/22 05:24:33;;;;;;;11.07;2.70;;;6.70;63.20;;;;;;5113612;28;20051;-69
2021/04/22 05:26:59;;;;;;;12.90;2.97;;;6.70;63.00;;;;;;5113282;28;20293;-69
2021/04/22 05:29:25;;;;;;;11.90;2.47;;;6.80;63.00;;;;;;5113171;28;20405;-69
2021/04/22 05:31:52;;;;;;;12.60;2.90;;;6.80;63.10;;;;;;5112995;28;20047;-69
2021/04/22 05:34:17;;;;;;;13.10;3.47;;;6.90;63.20;;;;;;5113080;28;20665;-69
2021/04/22 05:36:43;;;;;;;9.27;3.40;;;6.90;63.00;;;;;;5112472;28;20293;-69
2021/04/22 05:39:09;;;;;;;11.57;3.10;;;7.00;62.80;;;;;;5112998;28;20040;-69
2021/04/22 05:41:35;;;;;;;14.50;3.57;;;6.90;62.60;;;;;;5113255;28;20514;-69
2021/04/22 05:44:01;;;;;;;12.37;2.77;;;6.90;62.10;;;;;;5112279;28;20297;-69
2021/04/22 05:46:27;;;;;;;11.37;3.43;;;7.00;62.20;;;;;;5113365;28;20055;-69
2021/04/22 05:48:53;;;;;;;11.23;3.20;;;6.90;61.80;;;;;;5113012;28;20305;-69
2021/04/22 05:51:18;;;;;;;13.20;2.90;;;6.90;61.80;;;;;;5112221;27;20792;-67
2021/04/22 05:53:44;;;;;;;17.90;3.43;;;7.00;61.70;;;;;;5113102;28;20047;-68
2021/04/22 05:56:10;;;;;;;10.97;3.00;;;7.00;62.00;;;;;;5112824;28;20061;-68
2021/04/22 05:58:36;;;;;;;15.63;3.63;;;7.00;62.10;;;;;;5113388;28;20126;-68
2021/04/22 06:01:03;;;;;;;17.70;3.60;;;7.00;62.10;;;;;;5112339;28;20154;-68
2021/04/22 06:03:29;;;;;;;14.60;3.87;;;7.10;61.80;;;;;;5111855;28;20047;-68
2021/04/22 06:05:54;;;;;;;14.93;3.07;;;7.00;61.80;;;;;;5111870;28;20324;-68
2021/04/22 06:08:20;;;;;;;12.70;3.30;;;7.10;61.90;;;;;;5113022;28;20043;-68
2021/04/22 06:10:46;;;;;;;16.00;3.63;;;7.20;62.00;;;;;;5111544;28;20484;-69
2021/04/22 06:13:13;;;;;;;16.00;3.43;;;7.30;62.00;;;;;;5112756;28;20043;-69
2021/04/22 06:15:39;;;;;;;16.47;3.97;;;7.40;61.80;;;;;;5112559;28;20052;-69
2021/04/22 06:18:07;;;;;;;15.57;3.40;;;7.40;61.50;;;;;;5111373;28;20300;-69
2021/04/22 06:20:34;;;;;;;11.90;3.97;;;7.50;61.20;;;;;;5112658;28;20640;-69
2021/04/22 06:23:00;;;;;;;17.03;3.67;;;7.50;61.40;;;;;;5111868;28;20320;-68
2021/04/22 06:25:26;;;;;;;15.87;3.80;;;7.60;61.20;;;;;;5111951;28;20773;-69
2021/04/22 06:27:57;;;;;;;12.70;4.83;;;7.60;61.20;;;;;;5112459;28;20312;-69
2021/04/22 06:30:23;;;;;;;11.97;3.57;;;7.70;60.20;;;;;;5112492;28;20785;-69
2021/04/22 06:32:49;;;;;;;14.07;3.83;;;7.60;60.50;;;;;;5111108;28;20305;-70
2021/04/22 06:35:15;;;;;;;14.63;3.80;;;7.70;60.40;;;;;;5112202;28;20301;-69
2021/04/22 06:37:42;;;;;;;10.93;3.03;;;7.70;60.00;;;;;;5112149;27;20036;-69
2021/04/22 06:40:12;;;;;;;10.60;2.70;;;7.80;59.70;;;;;;5111488;28;20744;-69
2021/04/22 06:42:40;;;;;;;12.97;3.83;;;7.70;60.00;;;;;;5112119;28;20849;-69
2021/04/22 06:45:07;;;;;;;15.43;3.43;;;7.80;60.00;;;;;;5111749;28;20298;-69
2021/04/22 06:47:33;;;;;;;15.73;3.20;;;7.80;59.70;;;;;;5111594;28;20427;-69
2021/04/22 06:49:59;;;;;;;10.50;2.87;;;7.90;59.90;;;;;;5111500;28;20372;-69
2021/04/22 06:52:27;;;;;;;11.23;3.67;;;7.90;59.70;;;;;;5111648;28;20130;-69
2021/04/22 06:54:53;;;;;;;9.70;3.07;;;8.00;59.90;;;;;;5109609;28;20428;-69
2021/04/22 06:57:19;;;;;;;15.37;3.00;;;8.00;59.70;;;;;;5112252;28;20297;-69
2021/04/22 06:59:45;;;;;;;14.37;3.77;;;8.00;59.80;;;;;;5110766;28;20293;-70
2021/04/22 07:02:10;;;;;;;15.23;3.70;;;8.00;59.70;;;;;;5112019;28;20492;-70
2021/04/22 07:04:37;;;;;;;10.87;3.13;;;7.90;59.90;;;;;;5112065;28;20097;-70
2021/04/22 07:07:03;;;;;;;12.00;3.90;;;7.90;60.00;;;;;;5110947;28;20301;-70
2021/04/22 07:09:42;;;;;;;10.20;3.40;;;7.90;60.20;;;;;;5112048;28;20052;-69
2021/04/22 07:12:08;;;;;;;10.80;3.13;;;7.90;60.40;;;;;;5112011;28;20447;-69
2021/04/22 07:14:34;;;;;;;10.90;2.97;;;8.00;60.20;;;;;;5111518;28;20044;-68
2021/04/22 07:17:00;;;;;;;12.40;3.43;;;8.00;60.00;;;;;;5110893;28;20305;-69
2021/04/22 07:19:28;;;;;;;8.63;2.60;;;8.10;60.10;;;;;;5112330;27;20452;-68
2021/04/22 07:21:55;;;;;;;10.70;3.00;;;8.10;60.00;;;;;;5110557;28;20321;-70
2021/04/22 07:24:22;;;;;;;10.50;2.87;;;8.00;60.10;;;;;;5111817;28;20319;-70
2021/04/22 07:27:10;;;;;;;12.07;3.33;;;8.10;60.40;;;;;;5110358;28;20291;-69
2021/04/22 07:29:36;;;;;;;11.53;3.40;;;8.10;60.60;;;;;;5110967;28;20336;-69
2021/04/22 07:32:02;;;;;;;10.23;3.17;;;8.10;61.30;;;;;;5111236;28;20309;-69
2021/04/22 07:34:27;;;;;;;6.73;2.27;;;8.30;61.10;;;;;;5111957;28;20694;-68
2021/04/22 07:36:55;;;;;;;12.40;3.20;;;8.40;60.30;;;;;;5111232;28;20047;-69
2021/04/22 07:39:21;;;;;;;12.60;3.27;;;8.50;59.60;;;;;;5111859;28;20097;-68
2021/04/22 07:41:47;;;;;;;7.13;2.07;;;8.50;59.20;;;;;;5110559;28;20321;-69
2021/04/22 07:44:12;;;;;;;12.87;3.00;;;8.50;59.30;;;;;;5111271;28;20297;-70
2021/04/22 07:46:38;;;;;;;10.10;2.93;;;8.40;59.30;;;;;;5111685;28;20051;-69
2021/04/22 07:49:06;;;;;;;11.03;3.30;;;8.40;59.90;;;;;;5110111;28;20044;-70
2021/04/22 07:51:32;;;;;;;10.43;3.23;;;8.40;60.40;;;;;;5110523;28;20408;-69
2021/04/22 07:53:57;;;;;;;7.93;3.10;;;8.80;60.60;;;;;;5111236;28;20312;-70
2021/04/22 07:56:23;;;;;;;13.63;3.00;;;9.50;60.00;;;;;;5110864;28;20059;-67
2021/04/22 07:58:49;;;;;;;12.43;2.80;;;10.20;58.50;;;;;;5111130;28;20140;-68
2021/04/22 08:01:15;;;;;;;7.50;2.53;;;10.60;57.50;;;;;;5111144;28;20078;-68
2021/04/22 08:03:40;;;;;;;7.40;2.73;;;10.60;55.50;;;;;;5109694;28;20065;-68
2021/04/22 08:06:06;;;;;;;11.80;2.37;;;10.20;54.60;;;;;;5109393;28;20047;-68
2021/04/22 08:08:32;;;;;;;9.27;3.03;;;9.60;55.80;;;;;;5109513;28;20350;-68
2021/04/22 08:10:58;;;;;;;8.53;2.70;;;9.20;57.40;;;;;;5108220;28;20448;-68
2021/04/22 08:13:24;;;;;;;13.70;2.37;;;8.80;58.50;;;;;;5109161;28;20142;-68
2021/04/22 08:15:53;;;;;;;8.93;3.30;;;8.70;59.00;;;;;;5109435;28;20050;-68
2021/04/22 08:18:22;;;;;;;11.70;2.83;;;8.80;59.70;;;;;;5108577;28;20316;-69
2021/04/22 08:20:48;;;;;;;9.17;2.60;;;9.40;60.10;;;;;;5111068;28;20297;-69
2021/04/22 08:23:14;;;;;;;7.40;2.40;;;10.30;59.30;;;;;;5111115;28;20297;-69
2021/04/22 08:25:44;;;;;;;10.37;2.70;;;10.60;58.30;;;;;;5110714;28;20075;-68
2021/04/22 08:28:12;;;;;;;8.60;3.10;;;10.60;57.90;;;;;;5113504;28;20075;-69
2021/04/22 08:30:54;;;;;;;11.37;2.80;;;10.50;57.70;;;;;;5115597;28;20044;-68
2021/04/22 08:33:23;;;;;;;8.97;2.47;;;10.10;57.50;;;;;;5115404;28;20055;-67
2021/04/22 08:35:49;;;;;;;10.80;2.97;;;9.80;57.90;;;;;;5114664;28;20063;-68
2021/04/22 08:38:15;;;;;;;13.20;3.73;;;9.50;58.50;;;;;;5114212;28;20678;-67
2021/04/22 08:40:45;;;;;;;7.80;2.53;;;9.40;58.30;;;;;;5115120;28;20384;-68
2021/04/22 08:43:11;;;;;;;9.30;3.00;;;9.40;57.50;;;;;;5114988;28;20499;-68
2021/04/22 08:45:38;;;;;;;9.67;3.13;;;9.70;58.40;;;;;;5114560;28;20301;-68
2021/04/22 08:48:04;;;;;;;9.17;3.17;;;10.20;57.40;;;;;;5114296;28;20821;-68
2021/04/22 08:50:32;;;;;;;11.27;2.33;;;10.70;56.70;;;;;;5115142;28;20424;-68
2021/04/22 08:53:00;;;;;;;12.57;3.13;;;11.10;56.00;;;;;;5113553;28;20059;-68
2021/04/22 08:55:29;;;;;;;7.87;3.07;;;11.00;54.00;;;;;;5115075;28;20046;-69
2021/04/22 08:57:57;;;;;;;8.50;2.90;;;10.60;54.40;;;;;;5114334;28;20192;-68
2021/04/22 09:00:26;;;;;;;12.60;2.90;;;10.20;54.50;;;;;;5113800;28;20140;-68
2021/04/22 09:02:52;;;;;;;12.50;2.93;;;9.90;55.20;;;;;;5114350;28;20377;-67
2021/04/22 09:05:19;;;;;;;8.93;2.53;;;10.00;55.40;;;;;;5114214;28;20054;-68
2021/04/22 09:07:46;;;;;;;10.53;2.70;;;10.00;55.20;;;;;;5113729;28;20059;-68
2021/04/22 09:10:19;;;;;;;13.83;2.80;;;9.80;55.20;;;;;;5114129;28;20075;-68
2021/04/22 09:12:56;;;;;;;11.57;2.70;;;9.60;55.80;;;;;;5114266;28;20304;-69
2021/04/22 09:15:22;;;;;;;7.90;3.20;;;9.60;57.20;;;;;;5113711;28;20824;-70
2021/04/22 09:17:56;;;;;;;10.37;2.80;;;9.60;57.40;;;;;;5113812;28;20329;-68
2021/04/22 09:20:28;;;;;;;10.40;3.20;;;9.40;57.50;;;;;;5113463;28;20047;-68
2021/04/22 09:22:54;;;;;;;10.23;3.30;;;9.40;58.00;;;;;;5114008;28;20317;-69
2021/04/22 09:25:24;;;;;;;9.07;3.30;;;9.80;58.60;;;;;;5114344;28;20304;-71
2021/04/22 09:27:54;;;;;;;8.70;3.50;;;10.40;58.30;;;;;;5113177;28;20492;-70
2021/04/22 09:30:33;;;;;;;12.87;3.57;;;10.80;57.20;;;;;;5113788;28;20381;-71
2021/04/22 09:32:58;;;;;;;11.67;2.77;;;10.80;56.00;;;;;;5113277;28;20056;-70
2021/04/22 09:35:25;;;;;;;11.17;2.93;;;10.70;56.10;;;;;;5113266;28;20048;-70
2021/04/22 09:37:53;;;;;;;7.00;2.67;;;10.60;55.70;;;;;;5113478;28;20124;-71
2021/04/22 09:40:29;;;;;;;11.57;3.77;;;10.50;55.30;;;;;;5113482;28;20047;-70
2021/04/22 09:42:57;;;;;;;7.83;2.63;;;10.30;55.30;;;;;;5112316;28;20051;-71
2021/04/22 09:45:26;;;;;;;12.90;3.37;;;10.20;55.40;;;;;;5113291;28;20043;-70
2021/04/22 09:47:52;;;;;;;8.70;3.23;;;10.10;56.10;;;;;;5113492;28;20087;-70
2021/04/22 09:50:22;;;;;;;12.00;4.23;;;10.20;56.90;;;;;;5112673;28;20300;-70
2021/04/22 09:52:54;;;;;;;12.33;3.27;;;10.40;57.20;;;;;;5113265;28;20324;-70
2021/04/22 09:55:27;;;;;;;10.97;3.53;;;10.40;57.20;;;;;;5112811;28;20835;-71
2021/04/22 09:57:53;;;;;;;10.63;3.40;;;10.40;57.20;;;;;;5113145;28;20297;-68
2021/04/22 10:00:29;;;;;;;9.23;2.80;;;10.30;57.40;;;;;;5113090;28;20632;-69
2021/04/22 10:03:09;;;;;;;7.43;2.43;;;10.20;56.90;;;;;;5112046;28;20051;-68
2021/04/22 10:05:37;;;;;;;6.80;2.83;;;10.10;56.60;;;;;;5113557;28;20677;-69
2021/04/22 10:08:06;;;;;;;7.30;2.20;;;10.00;56.90;;;;;;5112822;28;20293;-69
2021/04/22 10:10:33;;;;;;;9.20;2.67;;;10.20;57.00;;;;;;5112735;28;20311;-69
2021/04/22 10:13:04;;;;;;;7.17;2.13;;;10.50;56.20;;;;;;5112861;28;20301;-71
2021/04/22 10:15:33;;;;;;;8.67;2.23;;;10.50;55.20;;;;;;5113614;28;20310;-68
2021/04/22 10:18:05;;;;;;;7.70;2.40;;;10.60;54.00;;;;;;5111697;28;20298;-69
2021/04/22 10:20:34;;;;;;;9.53;2.73;;;10.50;53.80;;;;;;5112723;28;20679;-69
2021/04/22 10:23:00;;;;;;;7.70;2.63;;;10.50;54.20;;;;;;5112401;28;20344;-69
2021/04/22 10:25:36;;;;;;;7.77;2.47;;;10.60;53.70;;;;;;5112037;27;20329;-69
2021/04/22 10:28:14;;;;;;;9.30;2.97;;;10.80;52.70;;;;;;5112420;28;20063;-69
2021/04/22 10:30:42;;;;;;;8.00;2.30;;;10.70;51.80;;;;;;5111849;28;20408;-69
2021/04/22 10:33:09;;;;;;;9.93;2.47;;;10.70;51.90;;;;;;5112496;28;20737;-69
2021/04/22 10:35:37;;;;;;;9.80;2.63;;;10.80;52.30;;;;;;5112961;28;20301;-68
2021/04/22 10:38:04;;;;;;;11.30;2.77;;;10.80;51.40;;;;;;5111448;28;20126;-69
2021/04/22 10:40:47;;;;;;;9.20;2.33;;;10.70;50.90;;;;;;5112928;28;20043;-69
2021/04/22 10:43:24;;;;;;;8.10;2.80;;;10.70;51.50;;;;;;5112364;28;20393;-68
2021/04/22 10:45:52;;;;;;;7.87;2.53;;;10.90;51.40;;;;;;5111700;28;20662;-68
2021/04/22 10:48:19;;;;;;;7.77;2.97;;;11.00;51.40;;;;;;5112211;27;20304;-69
2021/04/22 10:50:49;;;;;;;9.23;2.77;;;11.00;51.50;;;;;;5111678;28;20040;-69
2021/04/22 10:53:19;;;;;;;7.93;2.63;;;10.90;51.90;;;;;;5111415;28;20358;-68
2021/04/22 10:55:45;;;;;;;14.37;3.10;;;11.10;51.90;;;;;;5111996;28;20285;-68
2021/04/22 10:58:26;;;;;;;11.93;2.67;;;11.40;51.50;;;;;;5111885;28;20789;-69
2021/04/22 11:01:03;;;;;;;11.17;3.00;;;11.80;51.00;;;;;;5111579;28;20301;-68
2021/04/22 11:03:43;;;;;;;10.20;2.60;;;11.90;50.50;;;;;;5112359;28;20048;-68
2021/04/22 11:06:18;;;;;;;6.47;2.30;;;11.70;50.10;;;;;;5111138;28;20445;-69
2021/04/22 11:08:50;;;;;;;10.80;3.03;;;11.30;50.80;;;;;;5111949;28;20071;-69
2021/04/22 11:11:35;;;;;;;9.13;2.77;;;10.90;52.00;;;;;;5111857;28;20039;-68
2021/04/22 11:14:11;;;;;;;10.63;3.07;;;10.70;51.80;;;;;;5110684;28;20829;-69
2021/04/22 11:16:40;;;;;;;8.77;2.53;;;10.70;51.90;;;;;;5111903;28;20069;-69
2021/04/22 11:19:21;;;;;;;9.47;2.63;;;10.70;52.50;;;;;;5111722;28;20333;-69
2021/04/22 11:21:56;;;;;;;11.93;3.00;;;10.70;51.70;;;;;;5111010;28;20320;-69
2021/04/22 11:24:34;;;;;;;7.17;2.83;;;10.60;51.70;;;;;;5111863;28;20139;-68
2021/04/22 11:27:02;;;;;;;9.07;2.77;;;10.40;52.10;;;;;;5110320;28;20319;-69
2021/04/22 11:29:43;;;;;;;10.93;2.80;;;10.20;52.40;;;;;;5112022;28;20385;-68
2021/04/22 11:32:25;;;;;;;8.13;2.90;;;10.20;52.50;;;;;;5111322;28;20308;-68
2021/04/22 11:34:56;;;;;;;;;;;10.40;51.70;;;;;;5110750;28;20847;-69
2021/04/22 11:37:33;;;;;;;8.97;2.80;;;10.50;53.20;;;;;;5111780;28;19927;-69
2021/04/22 11:40:11;;;;;;;11.40;3.00;;;10.50;53.20;;;;;;5111185;28;20301;-69
2021/04/22 11:42:38;;;;;;;9.13;2.63;;;10.30;53.90;;;;;;5111017;28;20313;-69
2021/04/22 11:45:26;;;;;;;8.77;2.50;;;10.40;54.30;;;;;;5110806;28;20425;-68
2021/04/22 11:47:58;;;;;;;9.73;2.70;;;10.60;54.40;;;;;;5110493;28;20294;-69
2021/04/22 11:50:48;;;;;;;9.60;2.75;;;10.60;53.10;;;;;;5111686;28;20290;-68
2021/04/22 11:53:15;;;;;;;7.97;2.50;;;10.50;53.10;;;;;;5111003;28;20127;-68
2021/04/22 11:55:46;;;;;;;10.23;2.57;;;10.40;53.10;;;;;;5110499;28;20308;-69
2021/04/22 11:58:17;;;;;;;8.55;2.90;;;10.20;53.30;;;;;;5111264;28;20289;-68
2021/04/22 12:00:50;;;;;;;7.05;2.60;;;10.10;53.30;;;;;;5111283;28;20115;-68
2021/04/22 12:03:24;;;;;;;5.60;2.10;;;10.10;53.40;;;;;;5112831;28;20493;-68
2021/04/22 12:05:51;;;;;;;6.97;2.53;;;10.30;53.00;;;;;;5115553;27;20298;-69
2021/04/22 12:08:17;;;;;;;6.33;2.47;;;10.50;52.30;;;;;;5115456;28;20331;-69
2021/04/22 12:10:49;;;;;;;7.07;2.30;;;10.90;52.40;;;;;;5114341;28;20302;-69
2021/04/22 12:13:21;;;;;;;7.22;2.22;;;11.10;52.10;;;;;;5115556;28;20385;-68
2021/04/22 12:15:53;;;;;;;8.10;3.43;;;11.20;51.40;;;;;;5115336;28;20044;-69
2021/04/22 12:18:30;;;;;;;7.78;2.35;;;11.20;51.60;;;;;;5115277;28;20317;-68
2021/04/22 12:21:16;;;;;;;6.83;2.10;;;11.20;50.70;;;;;;5114741;28;20126;-68
2021/04/22 12:23:45;;;;;;;11.00;3.20;;;11.10;49.80;;;;;;5114085;28;20048;-68
2021/04/22 12:26:12;;;;;;;9.70;2.33;;;10.90;51.40;;;;;;5114743;28;20184;-68
2021/04/22 12:28:40;;;;;;;8.63;2.13;;;10.80;51.90;;;;;;5114582;28;20490;-68
2021/04/22 12:31:05;;;;;;;7.97;3.10;;;10.70;52.30;;;;;;5113906;28;20376;-70
2021/04/22 12:33:32;;;;;;;8.87;3.40;;;10.60;52.90;;;;;;5115312;28;20445;-68
2021/04/22 12:35:59;;;;;;;8.00;2.37;;;10.50;53.20;;;;;;5114590;28;20046;-69
2021/04/22 12:38:35;;;;;;;9.60;3.23;;;10.40;53.80;;;;;;5114664;28;20072;-68
2021/04/22 12:41:07;;;;;;;8.87;2.87;;;10.30;53.50;;;;;;5114265;28;20376;-69
2021/04/22 12:43:35;;;;;;;11.63;2.93;;;10.20;53.70;;;;;;5114874;28;20723;-68
2021/04/22 12:46:13;;;;;;;7.33;3.20;;;10.20;54.20;;;;;;5113411;28;20362;-70
2021/04/22 12:48:40;;;;;;;10.20;3.20;;;10.40;54.60;;;;;;5115001;28;20380;-70
2021/04/22 12:51:06;;;;;;;11.83;3.53;;;10.50;54.00;;;;;;5113674;28;20397;-69
2021/04/22 12:53:45;;;;;;;12.60;2.93;;;10.50;53.30;;;;;;5114560;28;20670;-68